sensor_id;sensor_type;location;lat;lon;timestamp;P1;durP1;ratioP1;P2;durP2;ratioP2
52586;SDS011;38480;52.724;6.436;2023-01-10T00:01:31;28.93;;;5.50;;
52586;SDS011;38480;52.724;6.436;2023-01-10T00:03:57;25.90;;;5.53;;
52586;SDS011;38480;52.724;6.436;2023-01-10T00:06:24;29.07;;;5.30;;
52586;SDS011;38480;52.724;6.436;2023-01-10T00:08:50;27.47;;;6.10;;
52586;SDS011;38480;52.724;6.436;2023-01-10T00:11:16;26.00;;;6.30;;
52586;SDS011;38480;52.724;6.436;2023-01-10T00:14:01;31.70;;;5.40;;
52586;SDS011;38480;52.724;6.436;2023-01-10T00:16:27;26.40;;;5.53;;
52586;SDS011;38480;52.724;6.436;2023-01-10T00:18:53;23.70;;;5.80;;
52586;SDS011;38480;52.724;6.436;2023-01-10T00:21:19;34.50;;;6.10;;
52586;SDS011;38480;52.724;6.436;2023-01-10T00:23:45;30.17;;;5.77;;
52586;SDS011;38480;52.724;6.436;2023-01-10T00:26:13;28.97;;;6.27;;
52586;SDS011;38480;52.724;6.436;2023-01-10T00:28:39;27.37;;;5.33;;
52586;SDS011;38480;52.724;6.436;2023-01-10T00:31:07;23.53;;;6.53;;
52586;SDS011;38480;52.724;6.436;2023-01-10T00:33:36;26.93;;;6.03;;
52586;SDS011;38480;52.724;6.436;2023-01-10T00:36:03;23.03;;;5.63;;
52586;SDS011;38480;52.724;6.436;2023-01-10T00:38:30;29.77;;;6.20;;
52586;SDS011;38480;52.724;6.436;2023-01-10T00:41:00;26.37;;;5.10;;
52586;SDS011;38480;52.724;6.436;2023-01-10T00:43:26;21.87;;;5.00;;
52586;SDS011;38480;52.724;6.436;2023-01-10T00:46:11;33.17;;;6.30;;
52586;SDS011;38480;52.724;6.436;2023-01-10T00:48:37;51.30;;;6.27;;
52586;SDS011;38480;52.724;6.436;2023-01-10T00:51:05;25.13;;;6.13;;
52586;SDS011;38480;52.724;6.436;2023-01-10T00:53:31;31.07;;;6.87;;
52586;SDS011;38480;52.724;6.436;2023-01-10T00:55:57;27.40;;;7.70;;
52586;SDS011;38480;52.724;6.436;2023-01-10T00:58:23;25.30;;;5.47;;
52586;SDS011;38480;52.724;6.436;2023-01-10T01:00:49;21.47;;;4.40;;
52586;SDS011;38480;52.724;6.436;2023-01-10T01:03:16;20.67;;;4.30;;
52586;SDS011;38480;52.724;6.436;2023-01-10T01:05:43;32.63;;;4.83;;
52586;SDS011;38480;52.724;6.436;2023-01-10T01:08:09;35.70;;;6.87;;
52586;SDS011;38480;52.724;6.436;2023-01-10T01:10:35;31.73;;;5.73;;
52586;SDS011;38480;52.724;6.436;2023-01-10T01:13:09;26.00;;;4.20;;
52586;SDS011;38480;52.724;6.436;2023-01-10T01:15:35;21.88;;;4.30;;
52586;SDS011;38480;52.724;6.436;2023-01-10T01:18:02;22.70;;;4.33;;
52586;SDS011;38480;52.724;6.436;2023-01-10T01:20:28;30.73;;;4.57;;
52586;SDS011;38480;52.724;6.436;2023-01-10T01:22:54;24.13;;;4.90;;
52586;SDS011;38480;52.724;6.436;2023-01-10T01:25:20;22.87;;;4.63;;
52586;SDS011;38480;52.724;6.436;2023-01-10T01:27:46;28.30;;;4.47;;
52586;SDS011;38480;52.724;6.436;2023-01-10T01:30:13;21.10;;;3.53;;
52586;SDS011;38480;52.724;6.436;2023-01-10T01:32:39;23.37;;;4.83;;
52586;SDS011;38480;52.724;6.436;2023-01-10T01:35:06;20.53;;;4.57;;
52586;SDS011;38480;52.724;6.436;2023-01-10T01:37:32;28.17;;;4.30;;
52586;SDS011;38480;52.724;6.436;2023-01-10T01:39:58;29.37;;;6.50;;
52586;SDS011;38480;52.724;6.436;2023-01-10T01:45:14;20.73;;;3.80;;
52586;SDS011;38480;52.724;6.436;2023-01-10T01:52:44;31.53;;;7.20;;
52586;SDS011;38480;52.724;6.436;2023-01-10T01:55:11;21.80;;;3.53;;
52586;SDS011;38480;52.724;6.436;2023-01-10T01:57:37;25.77;;;3.90;;
52586;SDS011;38480;52.724;6.436;2023-01-10T02:00:03;28.13;;;4.77;;
52586;SDS011;38480;52.724;6.436;2023-01-10T02:02:30;47.37;;;6.10;;
52586;SDS011;38480;52.724;6.436;2023-01-10T02:05:02;26.37;;;4.13;;
52586;SDS011;38480;52.724;6.436;2023-01-10T02:07:30;26.33;;;6.07;;
52586;SDS011;38480;52.724;6.436;2023-01-10T02:10:00;21.07;;;4.33;;
52586;SDS011;38480;52.724;6.436;2023-01-10T02:12:28;26.63;;;5.60;;
52586;SDS011;38480;52.724;6.436;2023-01-10T02:14:54;22.13;;;4.23;;
52586;SDS011;38480;52.724;6.436;2023-01-10T02:17:20;22.03;;;5.10;;
52586;SDS011;38480;52.724;6.436;2023-01-10T02:19:53;21.73;;;4.90;;
52586;SDS011;38480;52.724;6.436;2023-01-10T02:24:53;26.40;;;4.03;;
52586;SDS011;38480;52.724;6.436;2023-01-10T02:27:39;22.27;;;4.97;;
52586;SDS011;38480;52.724;6.436;2023-01-10T02:30:34;28.53;;;5.37;;
52586;SDS011;38480;52.724;6.436;2023-01-10T02:33:48;22.53;;;4.23;;
52586;SDS011;38480;52.724;6.436;2023-01-10T02:35:55;17.40;;;4.30;;
52586;SDS011;38480;52.724;6.436;2023-01-10T02:38:34;27.33;;;4.67;;
52586;SDS011;38480;52.724;6.436;2023-01-10T02:41:05;23.50;;;4.17;;
52586;SDS011;38480;52.724;6.436;2023-01-10T02:43:38;23.35;;;4.45;;
52586;SDS011;38480;52.724;6.436;2023-01-10T02:46:10;20.77;;;3.73;;
52586;SDS011;38480;52.724;6.436;2023-01-10T02:48:38;20.60;;;4.43;;
52586;SDS011;38480;52.724;6.436;2023-01-10T02:51:21;26.57;;;4.90;;
52586;SDS011;38480;52.724;6.436;2023-01-10T02:53:56;23.98;;;4.03;;
52586;SDS011;38480;52.724;6.436;2023-01-10T02:59:18;17.60;;;4.37;;
52586;SDS011;38480;52.724;6.436;2023-01-10T03:09:32;23.37;;;3.93;;
52586;SDS011;38480;52.724;6.436;2023-01-10T03:12:08;22.10;;;3.30;;
52586;SDS011;38480;52.724;6.436;2023-01-10T03:14:36;22.33;;;3.47;;
52586;SDS011;38480;52.724;6.436;2023-01-10T03:17:03;22.63;;;4.60;;
52586;SDS011;38480;52.724;6.436;2023-01-10T03:19:32;28.23;;;6.17;;
52586;SDS011;38480;52.724;6.436;2023-01-10T03:22:00;19.87;;;4.47;;
52586;SDS011;38480;52.724;6.436;2023-01-10T03:24:29;27.17;;;4.77;;
52586;SDS011;38480;52.724;6.436;2023-01-10T03:27:43;16.77;;;3.83;;
52586;SDS011;38480;52.724;6.436;2023-01-10T03:32:10;20.37;;;3.63;;
52586;SDS011;38480;52.724;6.436;2023-01-10T03:34:36;29.83;;;4.60;;
52586;SDS011;38480;52.724;6.436;2023-01-10T03:37:13;21.30;;;4.43;;
52586;SDS011;38480;52.724;6.436;2023-01-10T03:40:05;19.97;;;4.60;;
52586;SDS011;38480;52.724;6.436;2023-01-10T03:42:31;27.27;;;4.90;;
52586;SDS011;38480;52.724;6.436;2023-01-10T03:45:21;37.83;;;4.40;;
52586;SDS011;38480;52.724;6.436;2023-01-10T03:47:49;18.77;;;4.27;;
52586;SDS011;38480;52.724;6.436;2023-01-10T03:50:19;20.60;;;4.63;;
52586;SDS011;38480;52.724;6.436;2023-01-10T03:52:45;32.30;;;5.53;;
52586;SDS011;38480;52.724;6.436;2023-01-10T03:55:13;32.97;;;5.47;;
52586;SDS011;38480;52.724;6.436;2023-01-10T03:57:42;32.93;;;5.43;;
52586;SDS011;38480;52.724;6.436;2023-01-10T04:00:13;33.72;;;6.53;;
52586;SDS011;38480;52.724;6.436;2023-01-10T04:02:39;24.07;;;4.77;;
52586;SDS011;38480;52.724;6.436;2023-01-10T04:05:05;26.73;;;4.90;;
52586;SDS011;38480;52.724;6.436;2023-01-10T04:07:32;20.50;;;5.37;;
52586;SDS011;38480;52.724;6.436;2023-01-10T04:09:58;29.07;;;5.20;;
52586;SDS011;38480;52.724;6.436;2023-01-10T04:12:24;35.97;;;5.07;;
52586;SDS011;38480;52.724;6.436;2023-01-10T04:14:51;35.33;;;5.13;;
52586;SDS011;38480;52.724;6.436;2023-01-10T04:17:17;32.50;;;5.87;;
52586;SDS011;38480;52.724;6.436;2023-01-10T04:19:43;35.20;;;6.73;;
52586;SDS011;38480;52.724;6.436;2023-01-10T04:22:10;32.60;;;5.03;;
52586;SDS011;38480;52.724;6.436;2023-01-10T04:24:36;25.53;;;5.00;;
52586;SDS011;38480;52.724;6.436;2023-01-10T04:27:02;36.17;;;6.53;;
52586;SDS011;38480;52.724;6.436;2023-01-10T04:29:29;27.53;;;6.90;;
52586;SDS011;38480;52.724;6.436;2023-01-10T04:31:55;22.13;;;3.90;;
52586;SDS011;38480;52.724;6.436;2023-01-10T04:34:21;41.87;;;7.73;;
52586;SDS011;38480;52.724;6.436;2023-01-10T04:36:47;25.67;;;4.97;;
52586;SDS011;38480;52.724;6.436;2023-01-10T04:39:14;35.80;;;6.53;;
52586;SDS011;38480;52.724;6.436;2023-01-10T04:41:40;31.00;;;5.30;;
52586;SDS011;38480;52.724;6.436;2023-01-10T04:44:06;34.47;;;5.67;;
52586;SDS011;38480;52.724;6.436;2023-01-10T04:46:32;23.63;;;3.90;;
52586;SDS011;38480;52.724;6.436;2023-01-10T04:48:58;33.03;;;5.03;;
52586;SDS011;38480;52.724;6.436;2023-01-10T04:51:25;36.63;;;7.50;;
52586;SDS011;38480;52.724;6.436;2023-01-10T04:53:51;33.90;;;5.33;;
52586;SDS011;38480;52.724;6.436;2023-01-10T04:56:18;34.07;;;6.03;;
52586;SDS011;38480;52.724;6.436;2023-01-10T04:58:45;25.87;;;4.57;;
52586;SDS011;38480;52.724;6.436;2023-01-10T05:01:22;22.20;;;5.13;;
52586;SDS011;38480;52.724;6.436;2023-01-10T05:03:49;28.77;;;4.87;;
52586;SDS011;38480;52.724;6.436;2023-01-10T05:06:15;40.27;;;5.17;;
52586;SDS011;38480;52.724;6.436;2023-01-10T05:08:42;35.53;;;5.40;;
52586;SDS011;38480;52.724;6.436;2023-01-10T05:11:08;32.87;;;5.00;;
52586;SDS011;38480;52.724;6.436;2023-01-10T05:13:34;39.23;;;6.33;;
52586;SDS011;38480;52.724;6.436;2023-01-10T05:16:00;35.50;;;6.60;;
52586;SDS011;38480;52.724;6.436;2023-01-10T05:18:26;34.63;;;5.80;;
52586;SDS011;38480;52.724;6.436;2023-01-10T05:20:58;32.80;;;5.00;;
52586;SDS011;38480;52.724;6.436;2023-01-10T05:23:24;33.43;;;4.57;;
52586;SDS011;38480;52.724;6.436;2023-01-10T05:25:50;24.20;;;5.13;;
52586;SDS011;38480;52.724;6.436;2023-01-10T05:28:16;31.40;;;5.57;;
52586;SDS011;38480;52.724;6.436;2023-01-10T05:30:42;31.90;;;5.63;;
52586;SDS011;38480;52.724;6.436;2023-01-10T05:33:08;41.23;;;6.80;;
52586;SDS011;38480;52.724;6.436;2023-01-10T05:35:34;33.27;;;6.07;;
52586;SDS011;38480;52.724;6.436;2023-01-10T05:38:00;30.07;;;5.70;;
52586;SDS011;38480;52.724;6.436;2023-01-10T05:40:26;27.37;;;5.50;;
52586;SDS011;38480;52.724;6.436;2023-01-10T05:42:52;24.17;;;4.83;;
52586;SDS011;38480;52.724;6.436;2023-01-10T05:45:18;37.07;;;7.03;;
52586;SDS011;38480;52.724;6.436;2023-01-10T05:47:44;22.40;;;5.33;;
52586;SDS011;38480;52.724;6.436;2023-01-10T05:50:10;36.47;;;7.30;;
52586;SDS011;38480;52.724;6.436;2023-01-10T05:52:36;34.93;;;6.83;;
52586;SDS011;38480;52.724;6.436;2023-01-10T05:55:02;46.77;;;6.97;;
52586;SDS011;38480;52.724;6.436;2023-01-10T05:57:28;21.97;;;5.17;;
52586;SDS011;38480;52.724;6.436;2023-01-10T05:59:54;27.33;;;6.60;;
52586;SDS011;38480;52.724;6.436;2023-01-10T06:02:20;27.27;;;6.90;;
52586;SDS011;38480;52.724;6.436;2023-01-10T06:04:47;39.23;;;6.63;;
52586;SDS011;38480;52.724;6.436;2023-01-10T06:07:13;29.97;;;6.17;;
52586;SDS011;38480;52.724;6.436;2023-01-10T06:09:39;36.07;;;6.20;;
52586;SDS011;38480;52.724;6.436;2023-01-10T06:12:05;30.17;;;5.87;;
52586;SDS011;38480;52.724;6.436;2023-01-10T06:14:31;44.57;;;8.57;;
52586;SDS011;38480;52.724;6.436;2023-01-10T06:16:57;33.37;;;7.20;;
52586;SDS011;38480;52.724;6.436;2023-01-10T06:19:23;29.10;;;6.63;;
52586;SDS011;38480;52.724;6.436;2023-01-10T06:21:49;32.03;;;7.33;;
52586;SDS011;38480;52.724;6.436;2023-01-10T06:24:15;27.57;;;6.17;;
52586;SDS011;38480;52.724;6.436;2023-01-10T06:26:41;29.23;;;6.37;;
52586;SDS011;38480;52.724;6.436;2023-01-10T06:29:07;35.90;;;7.03;;
52586;SDS011;38480;52.724;6.436;2023-01-10T06:31:33;34.83;;;7.93;;
52586;SDS011;38480;52.724;6.436;2023-01-10T06:34:00;29.20;;;5.97;;
52586;SDS011;38480;52.724;6.436;2023-01-10T06:36:26;39.60;;;8.33;;
52586;SDS011;38480;52.724;6.436;2023-01-10T06:38:52;41.83;;;6.27;;
52586;SDS011;38480;52.724;6.436;2023-01-10T06:41:18;43.07;;;7.90;;
52586;SDS011;38480;52.724;6.436;2023-01-10T06:43:45;31.13;;;7.93;;
52586;SDS011;38480;52.724;6.436;2023-01-10T06:46:15;40.33;;;7.90;;
52586;SDS011;38480;52.724;6.436;2023-01-10T06:48:42;33.93;;;7.10;;
52586;SDS011;38480;52.724;6.436;2023-01-10T06:51:09;36.83;;;8.23;;
52586;SDS011;38480;52.724;6.436;2023-01-10T06:53:35;43.77;;;8.17;;
52586;SDS011;38480;52.724;6.436;2023-01-10T06:56:01;37.10;;;8.13;;
52586;SDS011;38480;52.724;6.436;2023-01-10T06:58:29;27.43;;;6.57;;
52586;SDS011;38480;52.724;6.436;2023-01-10T07:00:55;35.40;;;8.13;;
52586;SDS011;38480;52.724;6.436;2023-01-10T07:03:22;42.90;;;7.73;;
52586;SDS011;38480;52.724;6.436;2023-01-10T07:05:48;47.50;;;7.57;;
52586;SDS011;38480;52.724;6.436;2023-01-10T07:08:14;28.17;;;6.93;;
52586;SDS011;38480;52.724;6.436;2023-01-10T07:10:40;34.83;;;6.50;;
52586;SDS011;38480;52.724;6.436;2023-01-10T07:13:07;37.20;;;7.40;;
52586;SDS011;38480;52.724;6.436;2023-01-10T07:15:33;30.47;;;7.97;;
52586;SDS011;38480;52.724;6.436;2023-01-10T07:17:59;32.27;;;7.10;;
52586;SDS011;38480;52.724;6.436;2023-01-10T07:20:25;37.03;;;7.63;;
52586;SDS011;38480;52.724;6.436;2023-01-10T07:22:55;45.57;;;8.50;;
52586;SDS011;38480;52.724;6.436;2023-01-10T07:25:22;36.07;;;9.53;;
52586;SDS011;38480;52.724;6.436;2023-01-10T07:27:48;37.60;;;8.50;;
52586;SDS011;38480;52.724;6.436;2023-01-10T07:30:14;38.67;;;8.90;;
52586;SDS011;38480;52.724;6.436;2023-01-10T07:32:40;35.60;;;9.23;;
52586;SDS011;38480;52.724;6.436;2023-01-10T07:35:06;35.53;;;8.37;;
52586;SDS011;38480;52.724;6.436;2023-01-10T07:37:32;42.87;;;8.70;;
52586;SDS011;38480;52.724;6.436;2023-01-10T07:39:58;34.20;;;7.97;;
52586;SDS011;38480;52.724;6.436;2023-01-10T07:42:24;39.50;;;9.07;;
52586;SDS011;38480;52.724;6.436;2023-01-10T07:44:50;31.97;;;7.60;;
52586;SDS011;38480;52.724;6.436;2023-01-10T07:47:16;41.00;;;8.73;;
52586;SDS011;38480;52.724;6.436;2023-01-10T07:49:42;44.00;;;8.27;;
52586;SDS011;38480;52.724;6.436;2023-01-10T07:52:08;30.67;;;8.60;;
52586;SDS011;38480;52.724;6.436;2023-01-10T07:54:34;32.87;;;6.60;;
52586;SDS011;38480;52.724;6.436;2023-01-10T07:57:01;44.07;;;8.70;;
52586;SDS011;38480;52.724;6.436;2023-01-10T07:59:27;39.20;;;7.87;;
52586;SDS011;38480;52.724;6.436;2023-01-10T08:01:53;39.37;;;8.03;;
52586;SDS011;38480;52.724;6.436;2023-01-10T08:04:19;33.90;;;9.20;;
52586;SDS011;38480;52.724;6.436;2023-01-10T08:06:45;34.90;;;7.97;;
52586;SDS011;38480;52.724;6.436;2023-01-10T08:09:11;40.10;;;8.30;;
52586;SDS011;38480;52.724;6.436;2023-01-10T08:11:37;36.87;;;8.57;;
52586;SDS011;38480;52.724;6.436;2023-01-10T08:14:03;47.60;;;11.80;;
52586;SDS011;38480;52.724;6.436;2023-01-10T08:16:29;33.87;;;9.47;;
52586;SDS011;38480;52.724;6.436;2023-01-10T08:18:55;33.10;;;8.93;;
52586;SDS011;38480;52.724;6.436;2023-01-10T08:21:21;33.63;;;7.83;;
52586;SDS011;38480;52.724;6.436;2023-01-10T08:23:48;32.80;;;7.13;;
52586;SDS011;38480;52.724;6.436;2023-01-10T08:26:15;40.57;;;7.70;;
52586;SDS011;38480;52.724;6.436;2023-01-10T08:28:41;32.93;;;7.47;;
52586;SDS011;38480;52.724;6.436;2023-01-10T08:31:08;29.00;;;7.53;;
52586;SDS011;38480;52.724;6.436;2023-01-10T08:33:36;43.63;;;8.77;;
52586;SDS011;38480;52.724;6.436;2023-01-10T08:36:02;43.03;;;8.20;;
52586;SDS011;38480;52.724;6.436;2023-01-10T08:38:28;33.97;;;8.27;;
52586;SDS011;38480;52.724;6.436;2023-01-10T08:40:55;40.97;;;10.00;;
52586;SDS011;38480;52.724;6.436;2023-01-10T08:43:22;33.57;;;6.73;;
52586;SDS011;38480;52.724;6.436;2023-01-10T08:45:48;40.47;;;8.63;;
52586;SDS011;38480;52.724;6.436;2023-01-10T08:48:14;36.10;;;7.63;;
52586;SDS011;38480;52.724;6.436;2023-01-10T08:50:40;26.83;;;7.67;;
52586;SDS011;38480;52.724;6.436;2023-01-10T08:53:06;36.07;;;7.83;;
52586;SDS011;38480;52.724;6.436;2023-01-10T08:55:33;40.50;;;8.10;;
52586;SDS011;38480;52.724;6.436;2023-01-10T08:58:01;42.03;;;7.37;;
52586;SDS011;38480;52.724;6.436;2023-01-10T09:00:28;31.03;;;7.20;;
52586;SDS011;38480;52.724;6.436;2023-01-10T09:02:54;33.10;;;6.67;;
52586;SDS011;38480;52.724;6.436;2023-01-10T09:05:20;34.77;;;6.80;;
52586;SDS011;38480;52.724;6.436;2023-01-10T09:07:46;42.57;;;7.77;;
52586;SDS011;38480;52.724;6.436;2023-01-10T09:10:12;25.20;;;6.23;;
52586;SDS011;38480;52.724;6.436;2023-01-10T09:12:38;42.33;;;8.97;;
52586;SDS011;38480;52.724;6.436;2023-01-10T09:15:23;38.87;;;6.87;;
52586;SDS011;38480;52.724;6.436;2023-01-10T09:17:53;29.33;;;6.60;;
52586;SDS011;38480;52.724;6.436;2023-01-10T09:20:20;34.23;;;8.00;;
52586;SDS011;38480;52.724;6.436;2023-01-10T09:22:46;28.80;;;6.77;;
52586;SDS011;38480;52.724;6.436;2023-01-10T09:25:12;26.20;;;6.60;;
52586;SDS011;38480;52.724;6.436;2023-01-10T09:27:38;44.47;;;7.43;;
52586;SDS011;38480;52.724;6.436;2023-01-10T09:30:04;37.70;;;7.87;;
52586;SDS011;38480;52.724;6.436;2023-01-10T09:32:30;36.23;;;7.37;;
52586;SDS011;38480;52.724;6.436;2023-01-10T09:34:56;34.00;;;7.40;;
52586;SDS011;38480;52.724;6.436;2023-01-10T09:37:22;33.00;;;7.50;;
52586;SDS011;38480;52.724;6.436;2023-01-10T09:39:48;27.80;;;6.87;;
52586;SDS011;38480;52.724;6.436;2023-01-10T09:45:05;29.77;;;7.33;;
52586;SDS011;38480;52.724;6.436;2023-01-10T09:50:22;41.60;;;9.10;;
52586;SDS011;38480;52.724;6.436;2023-01-10T09:52:49;38.70;;;8.87;;
52586;SDS011;38480;52.724;6.436;2023-01-10T09:55:32;37.97;;;11.03;;
52586;SDS011;38480;52.724;6.436;2023-01-10T09:58:03;37.13;;;9.77;;
52586;SDS011;38480;52.724;6.436;2023-01-10T10:00:36;49.77;;;11.43;;
52586;SDS011;38480;52.724;6.436;2023-01-10T10:03:04;48.78;;;13.15;;
52586;SDS011;38480;52.724;6.436;2023-01-10T10:05:30;45.87;;;10.93;;
52586;SDS011;38480;52.724;6.436;2023-01-10T10:07:57;39.60;;;11.70;;
52586;SDS011;38480;52.724;6.436;2023-01-10T10:10:49;38.83;;;11.03;;
52586;SDS011;38480;52.724;6.436;2023-01-10T10:13:46;34.30;;;11.23;;
52586;SDS011;38480;52.724;6.436;2023-01-10T10:16:12;41.60;;;13.83;;
52586;SDS011;38480;52.724;6.436;2023-01-10T10:24:24;42.27;;;12.47;;
52586;SDS011;38480;52.724;6.436;2023-01-10T10:29:37;37.77;;;11.47;;
52586;SDS011;38480;52.724;6.436;2023-01-10T10:37:07;35.03;;;11.80;;
52586;SDS011;38480;52.724;6.436;2023-01-10T10:39:36;37.17;;;11.43;;
52586;SDS011;38480;52.724;6.436;2023-01-10T10:42:04;39.87;;;11.07;;
52586;SDS011;38480;52.724;6.436;2023-01-10T10:44:36;37.07;;;12.13;;
52586;SDS011;38480;52.724;6.436;2023-01-10T10:47:17;41.77;;;11.50;;
52586;SDS011;38480;52.724;6.436;2023-01-10T10:49:55;31.13;;;8.67;;
52586;SDS011;38480;52.724;6.436;2023-01-10T10:52:32;40.40;;;9.60;;
52586;SDS011;38480;52.724;6.436;2023-01-10T10:54:59;39.57;;;11.57;;
52586;SDS011;38480;52.724;6.436;2023-01-10T10:57:28;30.77;;;8.87;;
52586;SDS011;38480;52.724;6.436;2023-01-10T10:59:56;36.77;;;8.93;;
52586;SDS011;38480;52.724;6.436;2023-01-10T11:02:30;33.07;;;9.07;;
52586;SDS011;38480;52.724;6.436;2023-01-10T11:05:03;41.22;;;9.70;;
52586;SDS011;38480;52.724;6.436;2023-01-10T11:07:33;39.78;;;9.80;;
52586;SDS011;38480;52.724;6.436;2023-01-10T11:10:01;32.57;;;8.27;;
52586;SDS011;38480;52.724;6.436;2023-01-10T11:12:47;39.00;;;9.67;;
52586;SDS011;38480;52.724;6.436;2023-01-10T11:18:20;33.17;;;7.87;;
52586;SDS011;38480;52.724;6.436;2023-01-10T11:26:06;36.57;;;7.40;;
52586;SDS011;38480;52.724;6.436;2023-01-10T11:28:33;29.10;;;7.10;;
52586;SDS011;38480;52.724;6.436;2023-01-10T11:30:59;32.80;;;6.07;;
52586;SDS011;38480;52.724;6.436;2023-01-10T11:33:30;32.50;;;8.40;;
52586;SDS011;38480;52.724;6.436;2023-01-10T11:36:00;29.00;;;6.78;;
52586;SDS011;38480;52.724;6.436;2023-01-10T11:38:27;29.57;;;6.67;;
52586;SDS011;38480;52.724;6.436;2023-01-10T11:45:56;27.80;;;7.40;;
52586;SDS011;38480;52.724;6.436;2023-01-10T11:48:26;37.73;;;7.57;;
52586;SDS011;38480;52.724;6.436;2023-01-10T11:50:53;28.30;;;6.50;;
52586;SDS011;38480;52.724;6.436;2023-01-10T11:53:28;34.90;;;6.77;;
52586;SDS011;38480;52.724;6.436;2023-01-10T11:55:55;26.87;;;6.00;;
52586;SDS011;38480;52.724;6.436;2023-01-10T11:58:21;37.87;;;6.47;;
52586;SDS011;38480;52.724;6.436;2023-01-10T12:00:48;35.43;;;7.60;;
52586;SDS011;38480;52.724;6.436;2023-01-10T12:03:24;36.87;;;7.60;;
52586;SDS011;38480;52.724;6.436;2023-01-10T12:05:54;28.77;;;6.37;;
52586;SDS011;38480;52.724;6.436;2023-01-10T12:08:23;35.43;;;6.27;;
52586;SDS011;38480;52.724;6.436;2023-01-10T12:13:28;25.07;;;5.60;;
52586;SDS011;38480;52.724;6.436;2023-01-10T12:18:40;27.93;;;7.20;;
52586;SDS011;38480;52.724;6.436;2023-01-10T12:21:06;35.53;;;6.90;;
52586;SDS011;38480;52.724;6.436;2023-01-10T12:23:32;28.43;;;7.23;;
52586;SDS011;38480;52.724;6.436;2023-01-10T12:26:04;34.30;;;8.17;;
52586;SDS011;38480;52.724;6.436;2023-01-10T12:28:31;27.07;;;6.03;;
52586;SDS011;38480;52.724;6.436;2023-01-10T12:30:58;31.33;;;7.60;;
52586;SDS011;38480;52.724;6.436;2023-01-10T12:33:29;32.60;;;7.50;;
52586;SDS011;38480;52.724;6.436;2023-01-10T12:44:20;27.90;;;6.43;;
52586;SDS011;38480;52.724;6.436;2023-01-10T12:46:57;30.97;;;8.20;;
52586;SDS011;38480;52.724;6.436;2023-01-10T12:49:26;32.83;;;6.53;;
52586;SDS011;38480;52.724;6.436;2023-01-10T12:51:56;29.03;;;6.57;;
52586;SDS011;38480;52.724;6.436;2023-01-10T12:54:24;30.73;;;6.83;;
52586;SDS011;38480;52.724;6.436;2023-01-10T12:56:52;35.10;;;7.70;;
52586;SDS011;38480;52.724;6.436;2023-01-10T12:59:23;33.17;;;6.50;;
52586;SDS011;38480;52.724;6.436;2023-01-10T13:01:51;22.70;;;6.80;;
52586;SDS011;38480;52.724;6.436;2023-01-10T13:04:19;26.03;;;6.13;;
52586;SDS011;38480;52.724;6.436;2023-01-10T13:06:46;21.90;;;6.10;;
52586;SDS011;38480;52.724;6.436;2023-01-10T13:09:17;30.53;;;6.63;;
52586;SDS011;38480;52.724;6.436;2023-01-10T13:14:16;32.37;;;6.93;;
52586;SDS011;38480;52.724;6.436;2023-01-10T13:16:46;25.60;;;6.00;;
52586;SDS011;38480;52.724;6.436;2023-01-10T13:21:43;30.30;;;5.90;;
52586;SDS011;38480;52.724;6.436;2023-01-10T13:29:13;24.50;;;6.80;;
52586;SDS011;38480;52.724;6.436;2023-01-10T13:31:41;33.47;;;6.00;;
52586;SDS011;38480;52.724;6.436;2023-01-10T13:34:09;30.17;;;6.53;;
52586;SDS011;38480;52.724;6.436;2023-01-10T13:36:37;29.70;;;6.50;;
52586;SDS011;38480;52.724;6.436;2023-01-10T13:39:05;30.23;;;5.87;;
52586;SDS011;38480;52.724;6.436;2023-01-10T14:06:30;29.73;;;6.30;;
52586;SDS011;38480;52.724;6.436;2023-01-10T14:16:41;18.10;;;5.67;;
52586;SDS011;38480;52.724;6.436;2023-01-10T14:21:46;19.57;;;4.90;;
52586;SDS011;38480;52.724;6.436;2023-01-10T14:24:26;26.37;;;5.70;;
52586;SDS011;38480;52.724;6.436;2023-01-10T14:26:53;24.33;;;5.97;;
52586;SDS011;38480;52.724;6.436;2023-01-10T14:29:19;30.13;;;5.83;;
52586;SDS011;38480;52.724;6.436;2023-01-10T14:31:47;26.77;;;5.00;;
52586;SDS011;38480;52.724;6.436;2023-01-10T14:34:30;23.27;;;4.83;;
52586;SDS011;38480;52.724;6.436;2023-01-10T14:37:01;20.33;;;4.37;;
52586;SDS011;38480;52.724;6.436;2023-01-10T14:39:28;26.87;;;4.73;;
52586;SDS011;38480;52.724;6.436;2023-01-10T14:41:57;21.47;;;5.00;;
52586;SDS011;38480;52.724;6.436;2023-01-10T14:44:26;24.70;;;5.07;;
52586;SDS011;38480;52.724;6.436;2023-01-10T14:46:54;20.77;;;5.37;;
52586;SDS011;38480;52.724;6.436;2023-01-10T14:51:46;31.40;;;6.03;;
52586;SDS011;38480;52.724;6.436;2023-01-10T14:54:17;23.87;;;4.77;;
52586;SDS011;38480;52.724;6.436;2023-01-10T14:56:47;22.40;;;4.53;;
52586;SDS011;38480;52.724;6.436;2023-01-10T14:59:33;21.57;;;4.90;;
52586;SDS011;38480;52.724;6.436;2023-01-10T15:02:01;25.17;;;5.03;;
52586;SDS011;38480;52.724;6.436;2023-01-10T15:04:28;27.23;;;5.60;;
52586;SDS011;38480;52.724;6.436;2023-01-10T15:06:58;30.77;;;5.50;;
52586;SDS011;38480;52.724;6.436;2023-01-10T15:09:26;23.83;;;4.97;;
52586;SDS011;38480;52.724;6.436;2023-01-10T15:11:52;26.10;;;4.90;;
52586;SDS011;38480;52.724;6.436;2023-01-10T15:14:19;21.63;;;4.63;;
52586;SDS011;38480;52.724;6.436;2023-01-10T15:16:47;31.00;;;6.63;;
52586;SDS011;38480;52.724;6.436;2023-01-10T15:19:15;22.30;;;4.83;;
52586;SDS011;38480;52.724;6.436;2023-01-10T15:21:42;21.27;;;5.00;;
52586;SDS011;38480;52.724;6.436;2023-01-10T15:24:27;27.30;;;6.03;;
52586;SDS011;38480;52.724;6.436;2023-01-10T15:26:55;21.23;;;5.23;;
52586;SDS011;38480;52.724;6.436;2023-01-10T15:29:23;27.07;;;6.07;;
52586;SDS011;38480;52.724;6.436;2023-01-10T15:31:50;28.63;;;5.23;;
52586;SDS011;38480;52.724;6.436;2023-01-10T15:34:17;23.43;;;4.60;;
52586;SDS011;38480;52.724;6.436;2023-01-10T15:36:46;21.40;;;4.47;;
52586;SDS011;38480;52.724;6.436;2023-01-10T15:39:20;22.80;;;5.03;;
52586;SDS011;38480;52.724;6.436;2023-01-10T15:41:47;17.10;;;4.25;;
52586;SDS011;38480;52.724;6.436;2023-01-10T15:44:23;21.17;;;4.67;;
52586;SDS011;38480;52.724;6.436;2023-01-10T15:46:57;25.03;;;5.60;;
52586;SDS011;38480;52.724;6.436;2023-01-10T15:49:23;23.90;;;5.67;;
52586;SDS011;38480;52.724;6.436;2023-01-10T15:51:50;30.03;;;5.27;;
52586;SDS011;38480;52.724;6.436;2023-01-10T15:56:51;25.83;;;5.43;;
52586;SDS011;38480;52.724;6.436;2023-01-10T16:01:51;29.63;;;6.93;;
52586;SDS011;38480;52.724;6.436;2023-01-10T16:06:43;23.97;;;6.10;;
52586;SDS011;38480;52.724;6.436;2023-01-10T16:09:16;27.60;;;5.67;;
52586;SDS011;38480;52.724;6.436;2023-01-10T16:14:31;24.23;;;5.50;;
52586;SDS011;38480;52.724;6.436;2023-01-10T16:17:02;33.43;;;7.33;;
52586;SDS011;38480;52.724;6.436;2023-01-10T16:19:28;34.57;;;7.77;;
52586;SDS011;38480;52.724;6.436;2023-01-10T16:21:55;35.87;;;7.70;;
52586;SDS011;38480;52.724;6.436;2023-01-10T16:24:26;30.43;;;7.20;;
52586;SDS011;38480;52.724;6.436;2023-01-10T16:26:52;25.63;;;6.83;;
52586;SDS011;38480;52.724;6.436;2023-01-10T16:29:19;28.23;;;5.57;;
52586;SDS011;38480;52.724;6.436;2023-01-10T16:31:46;22.67;;;5.17;;
52586;SDS011;38480;52.724;6.436;2023-01-10T16:34:13;31.57;;;6.80;;
52586;SDS011;38480;52.724;6.436;2023-01-10T16:36:39;39.77;;;7.03;;
52586;SDS011;38480;52.724;6.436;2023-01-10T16:39:26;34.37;;;7.50;;
52586;SDS011;38480;52.724;6.436;2023-01-10T16:41:51;45.60;;;8.10;;
52586;SDS011;38480;52.724;6.436;2023-01-10T16:44:36;28.83;;;6.93;;
52586;SDS011;38480;52.724;6.436;2023-01-10T16:47:02;30.37;;;6.40;;
52586;SDS011;38480;52.724;6.436;2023-01-10T16:49:28;28.67;;;6.57;;